sensor_id;sensor_type;location;lat;lon;timestamp;temperature;humidity
12874;DHT22;6505;51.114;13.128;2023-08-12T00:00:21;24.00;64.20
12874;DHT22;6505;51.114;13.128;2023-08-12T00:02:51;23.90;64.10
12874;DHT22;6505;51.114;13.128;2023-08-12T00:05:19;23.90;64.10
12874;DHT22;6505;51.114;13.128;2023-08-12T00:07:48;23.90;64.10
12874;DHT22;6505;51.114;13.128;2023-08-12T00:10:17;23.90;64.20
12874;DHT22;6505;51.114;13.128;2023-08-12T00:12:45;23.90;64.10
12874;DHT22;6505;51.114;13.128;2023-08-12T00:15:13;23.90;64.20
12874;DHT22;6505;51.114;13.128;2023-08-12T00:17:41;23.90;64.20
12874;DHT22;6505;51.114;13.128;2023-08-12T00:20:11;23.80;64.10
12874;DHT22;6505;51.114;13.128;2023-08-12T00:22:40;23.80;64.10
12874;DHT22;6505;51.114;13.128;2023-08-12T00:25:08;23.80;64.30
12874;DHT22;6505;51.114;13.128;2023-08-12T00:27:37;23.80;64.40
12874;DHT22;6505;51.114;13.128;2023-08-12T00:30:06;23.80;64.30
12874;DHT22;6505;51.114;13.128;2023-08-12T00:32:35;23.80;64.40
12874;DHT22;6505;51.114;13.128;2023-08-12T00:35:03;23.80;64.30
12874;DHT22;6505;51.114;13.128;2023-08-12T00:37:33;23.80;64.50
12874;DHT22;6505;51.114;13.128;2023-08-12T00:40:01;23.80;64.40
12874;DHT22;6505;51.114;13.128;2023-08-12T00:42:31;23.70;64.40
12874;DHT22;6505;51.114;13.128;2023-08-12T00:44:59;23.70;64.40
12874;DHT22;6505;51.114;13.128;2023-08-12T00:47:29;23.80;64.50
12874;DHT22;6505;51.114;13.128;2023-08-12T00:49:58;23.80;64.90
12874;DHT22;6505;51.114;13.128;2023-08-12T00:52:27;23.60;64.40
12874;DHT22;6505;51.114;13.128;2023-08-12T00:54:56;23.70;64.60
12874;DHT22;6505;51.114;13.128;2023-08-12T00:57:25;23.70;64.60
12874;DHT22;6505;51.114;13.128;2023-08-12T00:59:55;23.70;64.70
12874;DHT22;6505;51.114;13.128;2023-08-12T01:02:24;23.70;64.70
12874;DHT22;6505;51.114;13.128;2023-08-12T01:04:52;23.70;64.70
12874;DHT22;6505;51.114;13.128;2023-08-12T01:07:20;23.60;65.40
12874;DHT22;6505;51.114;13.128;2023-08-12T01:09:48;23.70;64.70
12874;DHT22;6505;51.114;13.128;2023-08-12T01:12:22;23.60;64.80
12874;DHT22;6505;51.114;13.128;2023-08-12T01:15:01;23.60;65.00
12874;DHT22;6505;51.114;13.128;2023-08-12T01:17:37;23.60;65.10
12874;DHT22;6505;51.114;13.128;2023-08-12T01:20:09;23.60;65.30
12874;DHT22;6505;51.114;13.128;2023-08-12T01:22:41;23.60;65.30
12874;DHT22;6505;51.114;13.128;2023-08-12T01:25:14;23.60;65.30
12874;DHT22;6505;51.114;13.128;2023-08-12T01:27:42;23.60;65.10
12874;DHT22;6505;51.114;13.128;2023-08-12T01:30:11;23.60;65.10
12874;DHT22;6505;51.114;13.128;2023-08-12T01:32:45;23.60;64.90
12874;DHT22;6505;51.114;13.128;2023-08-12T01:35:25;23.60;65.50
12874;DHT22;6505;51.114;13.128;2023-08-12T01:37:59;23.60;65.50
12874;DHT22;6505;51.114;13.128;2023-08-12T01:40:32;23.50;65.30
12874;DHT22;6505;51.114;13.128;2023-08-12T01:43:01;23.50;65.30
12874;DHT22;6505;51.114;13.128;2023-08-12T01:45:31;23.50;65.30
12874;DHT22;6505;51.114;13.128;2023-08-12T01:48:01;23.50;65.00
12874;DHT22;6505;51.114;13.128;2023-08-12T01:50:29;23.50;65.10
12874;DHT22;6505;51.114;13.128;2023-08-12T01:52:57;23.50;65.10
12874;DHT22;6505;51.114;13.128;2023-08-12T01:55:30;23.50;65.20
12874;DHT22;6505;51.114;13.128;2023-08-12T01:57:58;23.50;65.40
12874;DHT22;6505;51.114;13.128;2023-08-12T02:00:26;23.40;65.10
12874;DHT22;6505;51.114;13.128;2023-08-12T02:02:54;23.40;65.20
12874;DHT22;6505;51.114;13.128;2023-08-12T02:05:24;23.40;65.20
12874;DHT22;6505;51.114;13.128;2023-08-12T02:07:53;23.40;65.30
12874;DHT22;6505;51.114;13.128;2023-08-12T02:10:21;23.40;65.30
12874;DHT22;6505;51.114;13.128;2023-08-12T02:12:50;23.40;65.40
12874;DHT22;6505;51.114;13.128;2023-08-12T02:15:18;23.40;65.40
12874;DHT22;6505;51.114;13.128;2023-08-12T02:17:46;23.40;65.60
12874;DHT22;6505;51.114;13.128;2023-08-12T02:20:15;23.40;65.60
12874;DHT22;6505;51.114;13.128;2023-08-12T02:22:43;23.40;65.60
12874;DHT22;6505;51.114;13.128;2023-08-12T02:25:11;23.40;65.50
12874;DHT22;6505;51.114;13.128;2023-08-12T02:27:39;23.40;65.60
12874;DHT22;6505;51.114;13.128;2023-08-12T02:30:10;23.40;65.50
12874;DHT22;6505;51.114;13.128;2023-08-12T02:32:39;23.40;65.80
12874;DHT22;6505;51.114;13.128;2023-08-12T02:35:10;23.40;65.60
12874;DHT22;6505;51.114;13.128;2023-08-12T02:37:38;23.40;66.30
12874;DHT22;6505;51.114;13.128;2023-08-12T02:40:07;23.40;65.60
12874;DHT22;6505;51.114;13.128;2023-08-12T02:42:37;23.40;65.80
12874;DHT22;6505;51.114;13.128;2023-08-12T02:45:06;23.40;65.60
12874;DHT22;6505;51.114;13.128;2023-08-12T02:47:35;23.40;65.70
12874;DHT22;6505;51.114;13.128;2023-08-12T02:50:05;23.40;65.50
12874;DHT22;6505;51.114;13.128;2023-08-12T02:52:35;23.40;65.70
12874;DHT22;6505;51.114;13.128;2023-08-12T02:55:04;23.40;65.50
12874;DHT22;6505;51.114;13.128;2023-08-12T02:57:32;23.40;65.70
12874;DHT22;6505;51.114;13.128;2023-08-12T03:00:00;23.40;65.50
12874;DHT22;6505;51.114;13.128;2023-08-12T03:02:30;23.30;65.40
12874;DHT22;6505;51.114;13.128;2023-08-12T03:04:59;23.40;65.50
12874;DHT22;6505;51.114;13.128;2023-08-12T03:07:28;23.40;65.60
12874;DHT22;6505;51.114;13.128;2023-08-12T03:09:56;23.40;65.60
12874;DHT22;6505;51.114;13.128;2023-08-12T03:12:24;23.40;65.70
12874;DHT22;6505;51.114;13.128;2023-08-12T03:14:52;23.30;65.60
12874;DHT22;6505;51.114;13.128;2023-08-12T03:17:20;23.30;65.60
12874;DHT22;6505;51.114;13.128;2023-08-12T03:19:49;23.30;65.50
12874;DHT22;6505;51.114;13.128;2023-08-12T03:22:20;23.30;65.60
12874;DHT22;6505;51.114;13.128;2023-08-12T03:24:48;23.40;65.70
12874;DHT22;6505;51.114;13.128;2023-08-12T03:27:17;23.30;65.50
12874;DHT22;6505;51.114;13.128;2023-08-12T03:29:45;23.30;65.50
12874;DHT22;6505;51.114;13.128;2023-08-12T03:32:14;23.30;65.50
12874;DHT22;6505;51.114;13.128;2023-08-12T03:34:42;23.30;65.50
12874;DHT22;6505;51.114;13.128;2023-08-12T03:37:11;23.30;65.60
12874;DHT22;6505;51.114;13.128;2023-08-12T03:39:42;23.30;65.10
12874;DHT22;6505;51.114;13.128;2023-08-12T03:42:11;23.30;65.80
12874;DHT22;6505;51.114;13.128;2023-08-12T03:44:39;23.20;65.50
12874;DHT22;6505;51.114;13.128;2023-08-12T03:47:07;23.20;66.00
12874;DHT22;6505;51.114;13.128;2023-08-12T03:49:36;23.30;66.10
12874;DHT22;6505;51.114;13.128;2023-08-12T03:52:05;23.30;66.10
12874;DHT22;6505;51.114;13.128;2023-08-12T03:54:33;23.20;66.20
12874;DHT22;6505;51.114;13.128;2023-08-12T03:57:03;23.20;66.20
12874;DHT22;6505;51.114;13.128;2023-08-12T03:59:32;23.20;66.40
12874;DHT22;6505;51.114;13.128;2023-08-12T04:02:00;23.20;66.30
12874;DHT22;6505;51.114;13.128;2023-08-12T04:04:30;23.20;66.30
12874;DHT22;6505;51.114;13.128;2023-08-12T04:06:58;23.20;66.30
12874;DHT22;6505;51.114;13.128;2023-08-12T04:09:26;23.20;66.40
12874;DHT22;6505;51.114;13.128;2023-08-12T04:11:54;23.30;66.70
12874;DHT22;6505;51.114;13.128;2023-08-12T04:14:24;23.20;66.70
12874;DHT22;6505;51.114;13.128;2023-08-12T04:16:52;23.20;66.80
12874;DHT22;6505;51.114;13.128;2023-08-12T04:19:20;23.20;66.90
12874;DHT22;6505;51.114;13.128;2023-08-12T04:21:48;23.20;66.90
12874;DHT22;6505;51.114;13.128;2023-08-12T04:24:17;23.20;66.90
12874;DHT22;6505;51.114;13.128;2023-08-12T04:26:46;23.30;67.20
12874;DHT22;6505;51.114;13.128;2023-08-12T04:29:15;23.20;67.20
12874;DHT22;6505;51.114;13.128;2023-08-12T04:31:47;23.30;67.30
12874;DHT22;6505;51.114;13.128;2023-08-12T04:34:16;23.30;67.40
12874;DHT22;6505;51.114;13.128;2023-08-12T04:36:45;23.30;67.30
12874;DHT22;6505;51.114;13.128;2023-08-12T04:39:14;23.30;67.30
12874;DHT22;6505;51.114;13.128;2023-08-12T04:41:42;23.30;67.20
12874;DHT22;6505;51.114;13.128;2023-08-12T04:44:10;23.30;67.50
12874;DHT22;6505;51.114;13.128;2023-08-12T04:46:39;23.30;67.50
12874;DHT22;6505;51.114;13.128;2023-08-12T04:49:09;23.40;68.00
12874;DHT22;6505;51.114;13.128;2023-08-12T04:51:37;23.40;68.00
12874;DHT22;6505;51.114;13.128;2023-08-12T04:54:05;23.40;68.10
12874;DHT22;6505;51.114;13.128;2023-08-12T04:56:34;23.40;68.10
12874;DHT22;6505;51.114;13.128;2023-08-12T04:59:02;23.40;68.00
12874;DHT22;6505;51.114;13.128;2023-08-12T05:01:31;23.50;68.20
12874;DHT22;6505;51.114;13.128;2023-08-12T05:03:59;23.50;68.00
12874;DHT22;6505;51.114;13.128;2023-08-12T05:06:29;23.50;67.90
12874;DHT22;6505;51.114;13.128;2023-08-12T05:08:57;23.50;68.20
12874;DHT22;6505;51.114;13.128;2023-08-12T05:11:25;23.60;68.20
12874;DHT22;6505;51.114;13.128;2023-08-12T05:13:53;23.60;67.90
12874;DHT22;6505;51.114;13.128;2023-08-12T05:16:21;23.60;67.80
12874;DHT22;6505;51.114;13.128;2023-08-12T05:18:50;23.60;67.90
12874;DHT22;6505;51.114;13.128;2023-08-12T05:21:18;23.70;68.60
12874;DHT22;6505;51.114;13.128;2023-08-12T05:23:47;23.70;68.40
12874;DHT22;6505;51.114;13.128;2023-08-12T05:26:15;23.80;68.90
12874;DHT22;6505;51.114;13.128;2023-08-12T05:28:43;23.80;69.20
12874;DHT22;6505;51.114;13.128;2023-08-12T05:31:11;23.90;68.90
12874;DHT22;6505;51.114;13.128;2023-08-12T05:33:40;24.00;69.30
12874;DHT22;6505;51.114;13.128;2023-08-12T05:36:08;24.10;69.10
12874;DHT22;6505;51.114;13.128;2023-08-12T05:38:36;24.10;69.60
12874;DHT22;6505;51.114;13.128;2023-08-12T05:41:05;24.30;69.30
12874;DHT22;6505;51.114;13.128;2023-08-12T05:43:35;24.40;69.10
12874;DHT22;6505;51.114;13.128;2023-08-12T05:46:03;24.50;69.20
12874;DHT22;6505;51.114;13.128;2023-08-12T05:48:31;24.60;68.80
12874;DHT22;6505;51.114;13.128;2023-08-12T05:50:59;24.60;68.50
12874;DHT22;6505;51.114;13.128;2023-08-12T05:53:27;24.70;68.30
12874;DHT22;6505;51.114;13.128;2023-08-12T05:55:55;24.80;67.90
12874;DHT22;6505;51.114;13.128;2023-08-12T05:58:24;24.70;67.50
12874;DHT22;6505;51.114;13.128;2023-08-12T06:00:52;24.80;68.10
12874;DHT22;6505;51.114;13.128;2023-08-12T06:03:21;24.90;68.10
12874;DHT22;6505;51.114;13.128;2023-08-12T06:05:49;24.90;68.50
12874;DHT22;6505;51.114;13.128;2023-08-12T06:08:17;24.90;69.20
12874;DHT22;6505;51.114;13.128;2023-08-12T06:10:45;24.90;69.10
12874;DHT22;6505;51.114;13.128;2023-08-12T06:13:13;25.00;70.00
12874;DHT22;6505;51.114;13.128;2023-08-12T06:15:43;25.00;71.00
12874;DHT22;6505;51.114;13.128;2023-08-12T06:18:11;25.20;70.90
12874;DHT22;6505;51.114;13.128;2023-08-12T06:20:40;25.20;71.20
12874;DHT22;6505;51.114;13.128;2023-08-12T06:23:10;25.40;70.50
12874;DHT22;6505;51.114;13.128;2023-08-12T06:25:38;25.60;70.60
12874;DHT22;6505;51.114;13.128;2023-08-12T06:28:06;25.70;70.80
12874;DHT22;6505;51.114;13.128;2023-08-12T06:30:35;25.80;69.80
12874;DHT22;6505;51.114;13.128;2023-08-12T06:33:05;25.90;69.60
12874;DHT22;6505;51.114;13.128;2023-08-12T06:35:33;26.00;69.10
12874;DHT22;6505;51.114;13.128;2023-08-12T06:38:01;26.10;69.30
12874;DHT22;6505;51.114;13.128;2023-08-12T06:40:29;26.10;69.10
12874;DHT22;6505;51.114;13.128;2023-08-12T06:42:57;26.20;69.90
12874;DHT22;6505;51.114;13.128;2023-08-12T06:45:26;26.20;70.00
12874;DHT22;6505;51.114;13.128;2023-08-12T06:47:54;26.30;70.20
12874;DHT22;6505;51.114;13.128;2023-08-12T06:50:23;26.40;69.90
12874;DHT22;6505;51.114;13.128;2023-08-12T06:52:51;26.50;69.70
12874;DHT22;6505;51.114;13.128;2023-08-12T06:55:19;26.60;69.90
12874;DHT22;6505;51.114;13.128;2023-08-12T06:57:47;26.80;69.30
12874;DHT22;6505;51.114;13.128;2023-08-12T07:00:16;26.90;67.90
12874;DHT22;6505;51.114;13.128;2023-08-12T07:02:44;27.00;67.70
12874;DHT22;6505;51.114;13.128;2023-08-12T07:05:12;27.10;67.40
12874;DHT22;6505;51.114;13.128;2023-08-12T07:07:42;27.30;66.10
12874;DHT22;6505;51.114;13.128;2023-08-12T07:10:10;27.40;66.00
12874;DHT22;6505;51.114;13.128;2023-08-12T07:12:38;27.40;66.10
12874;DHT22;6505;51.114;13.128;2023-08-12T07:15:07;27.40;66.40
12874;DHT22;6505;51.114;13.128;2023-08-12T07:17:37;27.50;65.80
12874;DHT22;6505;51.114;13.128;2023-08-12T07:20:06;27.50;65.40
12874;DHT22;6505;51.114;13.128;2023-08-12T07:22:35;27.50;65.60
12874;DHT22;6505;51.114;13.128;2023-08-12T07:25:05;27.50;64.80
12874;DHT22;6505;51.114;13.128;2023-08-12T07:27:34;27.50;64.20
12874;DHT22;6505;51.114;13.128;2023-08-12T07:30:02;27.50;64.20
12874;DHT22;6505;51.114;13.128;2023-08-12T07:32:31;27.50;64.20
12874;DHT22;6505;51.114;13.128;2023-08-12T07:34:59;27.50;64.80
12874;DHT22;6505;51.114;13.128;2023-08-12T07:37:28;27.60;64.30
12874;DHT22;6505;51.114;13.128;2023-08-12T07:39:56;27.70;65.10
12874;DHT22;6505;51.114;13.128;2023-08-12T07:42:26;27.70;64.40
12874;DHT22;6505;51.114;13.128;2023-08-12T07:44:54;27.90;63.90
12874;DHT22;6505;51.114;13.128;2023-08-12T07:47:22;28.00;63.20
12874;DHT22;6505;51.114;13.128;2023-08-12T07:49:50;28.20;62.30
12874;DHT22;6505;51.114;13.128;2023-08-12T07:52:18;28.30;60.90
12874;DHT22;6505;51.114;13.128;2023-08-12T07:54:46;28.50;60.90
12874;DHT22;6505;51.114;13.128;2023-08-12T07:57:14;28.70;60.60
12874;DHT22;6505;51.114;13.128;2023-08-12T07:59:44;28.90;59.40
12874;DHT22;6505;51.114;13.128;2023-08-12T08:02:12;29.10;59.80
12874;DHT22;6505;51.114;13.128;2023-08-12T08:04:41;29.30;59.70
12874;DHT22;6505;51.114;13.128;2023-08-12T08:07:10;29.40;59.70
12874;DHT22;6505;51.114;13.128;2023-08-12T08:09:38;29.60;59.20
12874;DHT22;6505;51.114;13.128;2023-08-12T08:12:07;29.80;58.30
12874;DHT22;6505;51.114;13.128;2023-08-12T08:14:37;29.90;57.60
12874;DHT22;6505;51.114;13.128;2023-08-12T08:17:06;30.00;57.00
12874;DHT22;6505;51.114;13.128;2023-08-12T08:19:34;30.00;57.10
12874;DHT22;6505;51.114;13.128;2023-08-12T08:22:02;30.10;56.90
12874;DHT22;6505;51.114;13.128;2023-08-12T08:24:31;30.20;57.10
12874;DHT22;6505;51.114;13.128;2023-08-12T08:26:59;30.40;57.50
12874;DHT22;6505;51.114;13.128;2023-08-12T08:29:27;30.60;56.80
12874;DHT22;6505;51.114;13.128;2023-08-12T08:31:55;30.90;56.80
12874;DHT22;6505;51.114;13.128;2023-08-12T08:34:24;31.20;56.10
12874;DHT22;6505;51.114;13.128;2023-08-12T08:36:52;31.50;55.70
12874;DHT22;6505;51.114;13.128;2023-08-12T08:39:21;31.80;54.50
12874;DHT22;6505;51.114;13.128;2023-08-12T08:41:49;32.10;53.30
12874;DHT22;6505;51.114;13.128;2023-08-12T08:44:17;32.30;53.60
12874;DHT22;6505;51.114;13.128;2023-08-12T08:46:50;32.60;52.30
12874;DHT22;6505;51.114;13.128;2023-08-12T08:49:21;32.80;51.30
12874;DHT22;6505;51.114;13.128;2023-08-12T08:51:53;32.80;51.00
12874;DHT22;6505;51.114;13.128;2023-08-12T08:54:21;32.90;50.20
12874;DHT22;6505;51.114;13.128;2023-08-12T08:56:49;33.00;49.50
12874;DHT22;6505;51.114;13.128;2023-08-12T08:59:30;33.00;49.60
12874;DHT22;6505;51.114;13.128;2023-08-12T09:01:59;33.00;49.10
12874;DHT22;6505;51.114;13.128;2023-08-12T09:04:30;33.00;49.70
12874;DHT22;6505;51.114;13.128;2023-08-12T09:06:59;32.90;49.50
12874;DHT22;6505;51.114;13.128;2023-08-12T09:09:28;32.90;49.60
12874;DHT22;6505;51.114;13.128;2023-08-12T09:11:57;32.90;48.70
12874;DHT22;6505;51.114;13.128;2023-08-12T09:14:26;32.80;49.50
12874;DHT22;6505;51.114;13.128;2023-08-12T09:16:55;32.70;50.00
12874;DHT22;6505;51.114;13.128;2023-08-12T09:19:23;32.70;50.30
12874;DHT22;6505;51.114;13.128;2023-08-12T09:21:53;32.60;49.80
12874;DHT22;6505;51.114;13.128;2023-08-12T09:24:24;32.60;50.50
12874;DHT22;6505;51.114;13.128;2023-08-12T09:26:53;32.50;51.00
12874;DHT22;6505;51.114;13.128;2023-08-12T09:29:23;32.40;51.30
12874;DHT22;6505;51.114;13.128;2023-08-12T09:31:51;32.30;50.70
12874;DHT22;6505;51.114;13.128;2023-08-12T09:34:20;32.30;50.90
12874;DHT22;6505;51.114;13.128;2023-08-12T09:36:48;32.20;50.70
12874;DHT22;6505;51.114;13.128;2023-08-12T09:39:19;32.20;51.60
12874;DHT22;6505;51.114;13.128;2023-08-12T09:41:47;32.10;51.70
12874;DHT22;6505;51.114;13.128;2023-08-12T09:44:15;32.10;52.50
12874;DHT22;6505;51.114;13.128;2023-08-12T09:46:43;32.00;52.60
12874;DHT22;6505;51.114;13.128;2023-08-12T09:49:12;31.90;53.30
12874;DHT22;6505;51.114;13.128;2023-08-12T09:51:41;31.90;53.20
12874;DHT22;6505;51.114;13.128;2023-08-12T09:54:11;31.90;53.20
12874;DHT22;6505;51.114;13.128;2023-08-12T09:56:48;31.80;54.10
12874;DHT22;6505;51.114;13.128;2023-08-12T09:59:18;31.80;53.50
12874;DHT22;6505;51.114;13.128;2023-08-12T10:01:49;31.70;53.40
12874;DHT22;6505;51.114;13.128;2023-08-12T10:04:22;31.70;53.90
12874;DHT22;6505;51.114;13.128;2023-08-12T10:06:54;31.60;54.40
12874;DHT22;6505;51.114;13.128;2023-08-12T10:09:23;31.60;53.50
12874;DHT22;6505;51.114;13.128;2023-08-12T10:11:54;31.60;54.80
12874;DHT22;6505;51.114;13.128;2023-08-12T10:14:23;31.60;54.50
12874;DHT22;6505;51.114;13.128;2023-08-12T10:16:52;31.50;54.10
12874;DHT22;6505;51.114;13.128;2023-08-12T10:19:32;31.50;54.90
12874;DHT22;6505;51.114;13.128;2023-08-12T10:22:02;31.50;55.00
12874;DHT22;6505;51.114;13.128;2023-08-12T10:24:31;31.50;54.80
12874;DHT22;6505;51.114;13.128;2023-08-12T10:27:03;31.50;53.10
12874;DHT22;6505;51.114;13.128;2023-08-12T10:29:32;31.50;53.20
12874;DHT22;6505;51.114;13.128;2023-08-12T10:32:02;31.50;52.30
12874;DHT22;6505;51.114;13.128;2023-08-12T10:34:31;31.50;54.20
12874;DHT22;6505;51.114;13.128;2023-08-12T10:37:02;31.60;54.30
12874;DHT22;6505;51.114;13.128;2023-08-12T10:39:32;31.50;54.10
12874;DHT22;6505;51.114;13.128;2023-08-12T10:42:02;31.50;54.40
12874;DHT22;6505;51.114;13.128;2023-08-12T10:44:39;31.50;53.70
12874;DHT22;6505;51.114;13.128;2023-08-12T10:47:09;31.40;53.90
12874;DHT22;6505;51.114;13.128;2023-08-12T10:49:39;31.40;53.80
12874;DHT22;6505;51.114;13.128;2023-08-12T10:52:25;31.30;53.70
12874;DHT22;6505;51.114;13.128;2023-08-12T10:54:55;31.30;53.90
12874;DHT22;6505;51.114;13.128;2023-08-12T10:57:49;31.30;54.40
12874;DHT22;6505;51.114;13.128;2023-08-12T11:00:23;31.20;54.20
12874;DHT22;6505;51.114;13.128;2023-08-12T11:02:53;31.20;54.80
12874;DHT22;6505;51.114;13.128;2023-08-12T11:05:24;31.10;55.20
12874;DHT22;6505;51.114;13.128;2023-08-12T11:08:05;31.10;55.70
12874;DHT22;6505;51.114;13.128;2023-08-12T11:10:35;31.10;55.20
12874;DHT22;6505;51.114;13.128;2023-08-12T11:13:03;31.00;55.10
12874;DHT22;6505;51.114;13.128;2023-08-12T11:15:34;31.00;56.30
12874;DHT22;6505;51.114;13.128;2023-08-12T11:18:04;31.00;56.40
12874;DHT22;6505;51.114;13.128;2023-08-12T11:20:33;31.00;56.20
12874;DHT22;6505;51.114;13.128;2023-08-12T11:23:03;30.90;55.80
12874;DHT22;6505;51.114;13.128;2023-08-12T11:25:33;30.90;55.70
12874;DHT22;6505;51.114;13.128;2023-08-12T11:28:05;30.90;55.20
12874;DHT22;6505;51.114;13.128;2023-08-12T11:30:34;30.90;56.00
12874;DHT22;6505;51.114;13.128;2023-08-12T11:33:03;30.90;55.80
12874;DHT22;6505;51.114;13.128;2023-08-12T11:35:32;31.00;55.70
12874;DHT22;6505;51.114;13.128;2023-08-12T11:38:00;31.00;55.00
12874;DHT22;6505;51.114;13.128;2023-08-12T11:40:28;31.10;54.80
12874;DHT22;6505;51.114;13.128;2023-08-12T11:42:57;31.10;55.50
12874;DHT22;6505;51.114;13.128;2023-08-12T11:45:26;31.10;55.30
12874;DHT22;6505;51.114;13.128;2023-08-12T11:47:55;31.10;55.40
12874;DHT22;6505;51.114;13.128;2023-08-12T11:50:25;31.20;54.90
12874;DHT22;6505;51.114;13.128;2023-08-12T11:52:55;31.20;55.00
12874;DHT22;6505;51.114;13.128;2023-08-12T11:55:25;31.20;54.40
12874;DHT22;6505;51.114;13.128;2023-08-12T11:57:54;31.20;54.30
12874;DHT22;6505;51.114;13.128;2023-08-12T12:00:25;31.20;56.20
12874;DHT22;6505;51.114;13.128;2023-08-12T12:02:55;31.30;55.30
12874;DHT22;6505;51.114;13.128;2023-08-12T12:05:26;31.30;55.50
12874;DHT22;6505;51.114;13.128;2023-08-12T12:07:56;31.20;55.20
12874;DHT22;6505;51.114;13.128;2023-08-12T12:10:26;31.20;54.70
12874;DHT22;6505;51.114;13.128;2023-08-12T12:13:01;31.30;55.60
12874;DHT22;6505;51.114;13.128;2023-08-12T12:15:38;31.20;54.90
12874;DHT22;6505;51.114;13.128;2023-08-12T12:18:10;31.20;55.40
12874;DHT22;6505;51.114;13.128;2023-08-12T12:20:53;31.20;53.80
12874;DHT22;6505;51.114;13.128;2023-08-12T12:23:27;31.10;53.40
12874;DHT22;6505;51.114;13.128;2023-08-12T12:25:58;31.10;53.70
12874;DHT22;6505;51.114;13.128;2023-08-12T12:28:27;31.10;53.80
12874;DHT22;6505;51.114;13.128;2023-08-12T12:30:57;31.00;53.50
12874;DHT22;6505;51.114;13.128;2023-08-12T12:33:25;30.90;53.40
12874;DHT22;6505;51.114;13.128;2023-08-12T12:35:54;30.90;53.70
12874;DHT22;6505;51.114;13.128;2023-08-12T12:38:27;30.90;53.90
12874;DHT22;6505;51.114;13.128;2023-08-12T12:40:56;30.90;54.10
12874;DHT22;6505;51.114;13.128;2023-08-12T12:43:24;30.90;54.30
12874;DHT22;6505;51.114;13.128;2023-08-12T12:45:52;30.90;54.20
12874;DHT22;6505;51.114;13.128;2023-08-12T12:48:21;30.80;54.80
12874;DHT22;6505;51.114;13.128;2023-08-12T12:50:50;30.80;54.20
12874;DHT22;6505;51.114;13.128;2023-08-12T12:53:18;30.80;54.20
12874;DHT22;6505;51.114;13.128;2023-08-12T12:55:46;30.80;54.50
12874;DHT22;6505;51.114;13.128;2023-08-12T12:58:14;30.80;54.60
12874;DHT22;6505;51.114;13.128;2023-08-12T13:00:43;30.80;54.80
12874;DHT22;6505;51.114;13.128;2023-08-12T13:03:11;30.70;54.70
12874;DHT22;6505;51.114;13.128;2023-08-12T13:05:40;30.70;55.00
12874;DHT22;6505;51.114;13.128;2023-08-12T13:08:08;30.70;53.40
12874;DHT22;6505;51.114;13.128;2023-08-12T13:10:36;30.70;54.10
12874;DHT22;6505;51.114;13.128;2023-08-12T13:13:04;30.80;53.80
12874;DHT22;6505;51.114;13.128;2023-08-12T13:15:32;30.80;53.00
12874;DHT22;6505;51.114;13.128;2023-08-12T13:18:01;30.70;52.90
12874;DHT22;6505;51.114;13.128;2023-08-12T13:20:29;30.70;52.50
12874;DHT22;6505;51.114;13.128;2023-08-12T13:22:59;30.70;52.70
12874;DHT22;6505;51.114;13.128;2023-08-12T13:25:30;30.60;52.60
12874;DHT22;6505;51.114;13.128;2023-08-12T13:28:00;30.60;53.40
12874;DHT22;6505;51.114;13.128;2023-08-12T13:30:28;30.60;53.40
12874;DHT22;6505;51.114;13.128;2023-08-12T13:32:56;30.50;53.40
12874;DHT22;6505;51.114;13.128;2023-08-12T13:35:28;30.50;53.50
12874;DHT22;6505;51.114;13.128;2023-08-12T13:37:56;30.50;53.20
12874;DHT22;6505;51.114;13.128;2023-08-12T13:40:26;30.40;52.50
12874;DHT22;6505;51.114;13.128;2023-08-12T13:42:54;30.40;52.80
12874;DHT22;6505;51.114;13.128;2023-08-12T13:45:22;30.40;52.50
12874;DHT22;6505;51.114;13.128;2023-08-12T13:47:51;30.30;52.50
12874;DHT22;6505;51.114;13.128;2023-08-12T13:50:19;30.30;52.70
12874;DHT22;6505;51.114;13.128;2023-08-12T13:52:48;30.30;52.40
12874;DHT22;6505;51.114;13.128;2023-08-12T13:55:17;30.30;52.60
12874;DHT22;6505;51.114;13.128;2023-08-12T13:57:46;30.30;52.90
12874;DHT22;6505;51.114;13.128;2023-08-12T14:00:14;30.20;52.70
12874;DHT22;6505;51.114;13.128;2023-08-12T14:02:43;30.20;52.90
12874;DHT22;6505;51.114;13.128;2023-08-12T14:05:11;30.20;53.00
12874;DHT22;6505;51.114;13.128;2023-08-12T14:07:39;30.20;53.20
12874;DHT22;6505;51.114;13.128;2023-08-12T14:10:08;30.20;53.30
12874;DHT22;6505;51.114;13.128;2023-08-12T14:12:36;30.10;54.40
12874;DHT22;6505;51.114;13.128;2023-08-12T14:15:06;30.10;53.50
12874;DHT22;6505;51.114;13.128;2023-08-12T14:17:35;30.10;53.60
12874;DHT22;6505;51.114;13.128;2023-08-12T14:20:04;30.10;55.50
12874;DHT22;6505;51.114;13.128;2023-08-12T14:22:35;30.10;54.40
12874;DHT22;6505;51.114;13.128;2023-08-12T14:25:03;30.10;54.20
12874;DHT22;6505;51.114;13.128;2023-08-12T14:27:32;30.10;54.20
12874;DHT22;6505;51.114;13.128;2023-08-12T14:30:01;30.10;53.90
12874;DHT22;6505;51.114;13.128;2023-08-12T14:32:30;30.10;54.40
12874;DHT22;6505;51.114;13.128;2023-08-12T14:34:58;30.00;53.70
12874;DHT22;6505;51.114;13.128;2023-08-12T14:37:26;30.00;53.90
12874;DHT22;6505;51.114;13.128;2023-08-12T14:39:55;30.00;54.00
12874;DHT22;6505;51.114;13.128;2023-08-12T14:42:23;30.10;54.20
12874;DHT22;6505;51.114;13.128;2023-08-12T14:44:51;30.00;54.00
12874;DHT22;6505;51.114;13.128;2023-08-12T14:47:19;29.90;53.90
12874;DHT22;6505;51.114;13.128;2023-08-12T14:49:49;29.90;53.40
12874;DHT22;6505;51.114;13.128;2023-08-12T14:52:20;30.00;54.30
12874;DHT22;6505;51.114;13.128;2023-08-12T14:54:49;29.90;54.00
12874;DHT22;6505;51.114;13.128;2023-08-12T14:57:17;29.90;54.00
12874;DHT22;6505;51.114;13.128;2023-08-12T14:59:45;29.90;53.60
12874;DHT22;6505;51.114;13.128;2023-08-12T15:02:19;29.90;53.60
12874;DHT22;6505;51.114;13.128;2023-08-12T15:04:49;30.00;53.80
12874;DHT22;6505;51.114;13.128;2023-08-12T15:07:18;29.90;53.70
12874;DHT22;6505;51.114;13.128;2023-08-12T15:09:47;29.90;54.20
12874;DHT22;6505;51.114;13.128;2023-08-12T15:12:15;29.90;53.90
12874;DHT22;6505;51.114;13.128;2023-08-12T15:14:43;29.90;54.00
12874;DHT22;6505;51.114;13.128;2023-08-12T15:17:11;29.90;54.00
12874;DHT22;6505;51.114;13.128;2023-08-12T15:19:40;29.90;54.10
12874;DHT22;6505;51.114;13.128;2023-08-12T15:22:09;29.90;54.30
12874;DHT22;6505;51.114;13.128;2023-08-12T15:24:37;29.80;54.10
12874;DHT22;6505;51.114;13.128;2023-08-12T15:27:05;29.80;54.50
12874;DHT22;6505;51.114;13.128;2023-08-12T15:29:33;29.80;54.30
12874;DHT22;6505;51.114;13.128;2023-08-12T15:32:02;29.80;54.30
12874;DHT22;6505;51.114;13.128;2023-08-12T15:34:31;29.70;54.40
12874;DHT22;6505;51.114;13.128;2023-08-12T15:36:59;29.80;54.60
12874;DHT22;6505;51.114;13.128;2023-08-12T15:39:28;29.70;54.60
12874;DHT22;6505;51.114;13.128;2023-08-12T15:41:56;29.70;54.70